Flight Track Log - Related Links

Times and Time Zones

All times are in EDT time to prevent confusion due to time zone crossing. See the XOJ557 flight status page for this flight to view local times or setup timezone preferences in your user account.

Time Position Orientation Groundspeed Altitude Reporting Facility
EDT Latitude Longitude Course Direction KTS MPH feet Rate Location/Type
Tue 01:09:50 PM 33.6500 -116.1333 90° East 180 207 2,100  Level Southern California TRACON
Tue 01:10:51 PM 33.6500 -116.0667 90° East 199 229 6,400 3,416 Climbing Southern California TRACON
Tue 01:12:07 PM 33.6403 -115.9764 97° East 248 285 9,900 2,130 Climbing Los Angeles Center
Tue 01:13:09 PM 33.6347 -115.8606 93° East 308 354 11,300 2,177 Climbing Los Angeles Center
Tue 01:14:11 PM 33.6283 -115.7311 93° East 367 422 14,400 3,387 Climbing Los Angeles Center
Tue 01:15:00 PM 33.6527 -115.4088 90° East  Level Estimated
Tue 01:15:13 PM 33.6236 -115.5722 92° East 392 451 18,300  Level Los Angeles Center
Tue 01:16:15 PM 33.6183 -115.4350 93° East 408 470 21,300 2,710 Climbing Los Angeles Center
Tue 01:17:17 PM 33.6136 -115.2917 92° East 426 490 23,900 2,468 Climbing Los Angeles Center
Tue 01:18:19 PM 33.6097 -115.1431 92° East 446 513 26,400 2,327 Climbing Los Angeles Center
Tue 01:20:02 PM 33.6028 -114.8706 92° East 460 529 30,300 2,000 Climbing Albuquerque Center
Tue 01:21:04 PM 33.5933 -114.7111 94° East 475 547 31,900 1,488 Climbing Albuquerque Center
Tue 01:22:07 PM 33.5778 -114.5497 97° East 485 558 33,400 1,392 Climbing Albuquerque Center
Tue 01:23:09 PM 33.5631 -114.3853 96° East 492 566 34,800 1,490 Climbing Albuquerque Center
Tue 01:24:32 PM 33.5264 -114.1528 101° East 504 580 37,000 1,452 Climbing Los Angeles Center
Tue 01:25:13 PM 33.5069 -114.0575 104° East 501 577 37,800 1,223 Climbing Albuquerque Center
Tue 01:26:15 PM 33.4606 -113.8653 106° East 501 577 39,100 1,161 Climbing Albuquerque Center
Tue 01:27:17 PM 33.4222 -113.7033 106° East 503 579 40,200 919 Climbing Albuquerque Center
Tue 01:28:19 PM 33.3831 -113.5411 106° East 503 579 41,000 387 Climbing Albuquerque Center
Tue 01:29:21 PM 33.3431 -113.3794 106° East 504 580 41,000  Level Albuquerque Center
Tue 01:30:23 PM 33.3044 -113.2161 106° East 505 581 41,000  Level Albuquerque Center
Tue 01:33:30 PM 33.1761 -112.6947 106° East 508 585 41,000  Level Albuquerque Center
Tue 01:34:32 PM 33.1319 -112.5217 107° East 508 585 41,000  Level Albuquerque Center
Tue 01:35:34 PM 33.0942 -112.3719 107° East 508 585 41,000  Level Albuquerque Center
Tue 01:36:36 PM 33.0508 -112.2006 107° East 508 585 41,000  Level Albuquerque Center
Tue 01:37:38 PM 33.0103 -112.0400 107° East 509 586 41,000  Level Albuquerque Center
Tue 01:38:40 PM 32.9697 -111.8786 107° East 509 586 41,000  Level Albuquerque Center
Tue 01:40:44 PM 32.8803 -111.5272 107° East 509 586 41,000  Level Albuquerque Center
Tue 01:41:46 PM 32.8392 -111.3692 107° East 508 585 41,000  Level Albuquerque Center
Tue 01:42:48 PM 32.8036 -111.2078 105° East 508 585 41,000  Level Albuquerque Center
Tue 01:43:50 PM 32.7792 -111.0450 100° East 503 579 41,000  Level Albuquerque Center
Tue 01:44:52 PM 32.7542 -110.8817 100° East 504 580 41,000  Level Albuquerque Center
Tue 01:45:54 PM 32.7233 -110.6878 101° East 503 579 41,000  Level Albuquerque Center
Tue 01:46:56 PM 32.7000 -110.5414 101° East 503 579 41,000  Level Albuquerque Center
Tue 01:47:58 PM 32.6750 -110.3781 100° East 503 579 41,000  Level Albuquerque Center
Tue 01:49:01 PM 32.6431 -110.1836 101° East 503 579 41,000  Level Albuquerque Center
Tue 01:50:03 PM 32.6167 -110.0228 101° East 503 579 41,000  Level Albuquerque Center
Tue 01:51:05 PM 32.5900 -109.8600 101° East 503 579 41,000  Level Albuquerque Center
Tue 01:58:19 PM 32.3922 -108.6889 107° East 507 583 41,000  Level Albuquerque Center
Tue 02:00:00 PM 32.4596 -108.4869 96° East  Level FlightAware Approximate
Tue 02:00:00 PM 32.4142 -108.4297 84° East  Level Estimated
Tue 02:01:00 PM 32.4441 -108.3332 97° East  Level FlightAware Approximate
Tue 02:01:25 PM 32.3039 -108.1814 84° East 509 586 41,000  Level Albuquerque Center
Tue 02:02:00 PM 32.4283 -108.1795 97° East  Level FlightAware Approximate
Tue 02:02:27 PM 32.2689 -107.9839 102° East 510 587 41,000  Level Albuquerque Center
Tue 02:03:00 PM 32.4066 -108.0268 107° East  Level FlightAware Approximate
Tue 02:03:29 PM 32.2467 -107.8194 99° East 510 587 41,000  Level Albuquerque Center
Tue 02:04:31 PM 32.2364 -107.6531 94° East 510 587 41,000  Level Albuquerque Center
Tue 02:05:33 PM 32.2239 -107.4697 95° East 510 587 41,000  Level Albuquerque Center
Tue 02:07:37 PM 32.2033 -107.1158 93° East 509 586 41,000  Level Albuquerque Center
Tue 02:08:39 PM 32.1908 -106.9497 95° East 509 586 41,000  Level Albuquerque Center
Tue 02:09:41 PM 32.1806 -106.7972 95° East 509 586 41,000  Level Albuquerque Center
Tue 02:10:43 PM 32.1678 -106.6317 95° East 509 586 41,000  Level Albuquerque Center
Tue 02:11:44 PM 32.1558 -106.4664 95° East 509 586 41,000  Level Albuquerque Center
Tue 02:12:46 PM 32.1403 -106.2683 95° East 509 586 41,000  Level Albuquerque Center
Tue 02:13:48 PM 32.1275 -106.1022 95° East 509 586 41,000  Level Albuquerque Center
Tue 02:16:54 PM 32.0869 -105.6028 95° East 510 587 41,000  Level Albuquerque Center
Tue 02:17:55 PM 32.0733 -105.4358 95° East 510 587 41,000  Level Albuquerque Center
Tue 02:18:57 PM 32.0594 -105.2697 96° East 510 587 41,000  Level Albuquerque Center
Tue 02:19:59 PM 32.0431 -105.0694 95° East 508 585 41,000  Level Albuquerque Center
Tue 02:21:01 PM 32.0297 -104.9006 95° East 515 593 41,000  Level Albuquerque Center
Tue 02:22:00 PM 32.0257 -104.8476 95° East  Level FlightAware Approximate
Tue 02:22:03 PM 32.0142 -104.7331 96° East 515 593 41,000  Level Albuquerque Center
Tue 02:23:04 PM 31.9997 -104.5636 96° East 515 593 41,000  Level Albuquerque Center
Tue 02:24:06 PM 31.9847 -104.3931 96° East 517 595 41,000  Level Albuquerque Center
Tue 02:25:08 PM 31.9689 -104.2236 96° East 517 595 41,000  Level Albuquerque Center
Tue 02:27:10 PM 31.9389 -103.8753 96° East 517 595 41,000  Level Fort Worth Center
Tue 02:28:13 PM 31.9200 -103.6883 97° East 517 595 41,000  Level Albuquerque Center
Tue 02:30:17 PM 31.8861 -103.3319 96° East 521 600 41,000  Level Fort Worth Center
Tue 02:32:20 PM 31.9061 -102.9947 86° East 521 600 41,000  Level Albuquerque Center
Tue 02:33:23 PM 31.9242 -102.8272 83° East 515 593 41,000  Level Fort Worth Center
Tue 02:35:25 PM 31.9636 -102.4861 82° East 516 594 41,000  Level Albuquerque Center
Tue 02:36:30 PM 31.9858 -102.2914 82° East 513 590 41,000  Level Fort Worth Center
Tue 02:38:34 PM 32.0236 -101.9564 82° East 510 587 41,000  Level Fort Worth Center
Tue 02:39:37 PM 32.0419 -101.7892 83° East 511 588 41,000 -48 Level Fort Worth Center
Tue 02:40:39 PM 32.0600 -101.6225 83° East 511 588 40,900  Descending Fort Worth Center
Tue 02:41:41 PM 32.0756 -101.4528 84° East 517 595 41,000 32 Climbing Fort Worth Center
Tue 02:43:45 PM 32.1139 -101.0808 84° East 518 596 41,000  Level Fort Worth Center
Tue 02:44:47 PM 32.1286 -100.9347 83° East 518 596 41,000  Level Fort Worth Center
Tue 02:45:49 PM 32.1486 -100.7333 83° East 518 596 41,000  Level Fort Worth Center
Tue 02:46:52 PM 32.1664 -100.5669 83° East 516 594 41,000  Level Fort Worth Center
Tue 02:47:54 PM 32.1819 -100.3997 84° East 515 593 41,000  Level Fort Worth Center
Tue 02:48:56 PM 32.1958 -100.2319 84° East 515 593 41,000  Level Fort Worth Center
Tue 02:49:58 PM 32.2119 -100.0644 83° East 515 593 41,000  Level Fort Worth Center
Tue 02:51:00 PM 32.2308 -99.8647 84° East 515 593 41,000 -290 Level Fort Worth Center
Tue 02:52:02 PM 32.2300 -99.6944 90° East 522 601 40,400 -774 Descending Fort Worth Center
Tue 02:53:04 PM 32.2247 -99.5258 92° East 520 598 39,400 -968 Descending Fort Worth Center
Tue 02:54:06 PM 32.2192 -99.3614 92° East 509 586 38,400 -1,008 Descending Fort Worth Center
Tue 02:55:09 PM 32.2122 -99.1994 93° East 500 575 37,300 -1,056 Descending Fort Worth Center
Tue 02:56:11 PM 32.2056 -99.0092 92° East 487 560 36,200 -1,355 Descending Fort Worth Center
Tue 02:57:13 PM 32.2019 -98.8478 91° East 490 564 34,500 -2,081 Descending Fort Worth Center
Tue 02:58:15 PM 32.2119 -98.6878 86° East 489 563 31,900 -2,565 Descending Fort Worth Center
Tue 02:59:17 PM 32.2217 -98.5256 86° East 492 566 29,200 -2,806 Descending Fort Worth Center
Tue 03:00:19 PM 32.2331 -98.3378 86° East 493 567 26,100 -2,567 Descending Fort Worth Center
Tue 03:02:24 PM 32.2514 -98.0389 98° East 422 486 21,200 -2,394 Descending Fort Worth Center
Tue 03:03:27 PM 32.2575 -97.8989 87° East 426 490 18,600 -2,304 Descending Fort Worth Center
Tue 03:04:29 PM 32.2656 -97.7542 86° East 410 472 16,400 -1,790 Descending Fort Worth Center
Tue 03:07:35 PM 32.3433 -97.4281 74° East 283 326 11,200 -1,790 Descending Fort Worth Center
Tue 03:08:37 PM 32.3703 -97.3361 71° East 297 342 9,000 -2,032 Descending Fort Worth Center
Tue 03:09:39 PM 32.3758 -97.2431 86° East 289 333 7,000 -1,968 Descending Fort Worth Center
Tue 03:10:42 PM 32.3831 -97.1453 85° East 287 330 4,900 -1,440 Descending Fort Worth Center
Tue 03:11:44 PM 32.4083 -97.0639 70° East 266 306 4,000 -435 Descending Fort Worth Center
Tue 03:12:46 PM 32.4444 -96.9814 63° Northeast 265 305 4,000  Level Fort Worth Center
Tue 03:13:48 PM 32.4794 -96.9092 60° Northeast 258 297 4,000  Level Fort Worth Center
Tue 03:14:50 PM 32.5172 -96.8267 61° Northeast 262 302 4,000  Level Fort Worth Center
Tue 03:15:52 PM 32.5647 -96.7608 49° Northeast 263 303 4,000  Level Fort Worth Center
Tue 03:17:56 PM 32.6514 -96.6681 344° North 201 231 4,000 -64 Level Fort Worth Center
Tue 03:18:59 PM 32.7044 -96.6925 339° North 208 239 3,800 -528 Descending Fort Worth Center
Tue 03:20:01 PM 32.7450 -96.7414 315° West 193 222 2,900 -726 Descending Fort Worth Center
Tue 03:21:03 PM 32.7750 -96.7742 317° Northwest 148 170 2,300 -629 Descending Fort Worth Center
Tue 03:22:05 PM 32.7947 -96.7975 315° West 103 119 1,600 -581 Descending Fort Worth Center
Tue 03:23:07 PM 32.8147 -96.8208 316° Northwest 95 109 1,100 -435 Descending Fort Worth Center
Tue 03:24:09 PM 32.8342 -96.8444 314° West 95 109 700 -387 Descending Fort Worth Center

Login

Don't have an account? Register now (free) for customized features, flight alerts, and more!